createdAt,value
2023-01-10T00:00:11.366Z,98393.16
2023-01-10T00:05:14.804Z,98393.97
2023-01-10T00:10:18.151Z,98396.84
2023-01-10T00:15:22.009Z,98400.56
2023-01-10T00:20:25.733Z,98401.97
2023-01-10T00:25:29.317Z,98398.69
2023-01-10T00:30:32.751Z,98402.56
2023-01-10T00:35:35.896Z,98398.25
2023-01-10T00:40:40.162Z,98399.28
2023-01-10T00:45:46.377Z,98393.94
2023-01-10T00:50:50.465Z,98381.78
2023-01-10T00:55:56.945Z,98390.63
2023-01-10T01:01:00.425Z,98389.38
2023-01-10T01:06:07.651Z,98398.81
2023-01-10T01:11:11.066Z,98395.94
2023-01-10T01:16:14.699Z,98396.72
2023-01-10T01:21:18.868Z,98393.16
2023-01-10T01:26:22.973Z,98394.84
2023-01-10T01:31:26.696Z,98392.75
2023-01-10T01:36:30.218Z,98388.19
2023-01-10T01:41:33.380Z,98381.38
2023-01-10T01:46:39.678Z,98386.56
2023-01-10T01:51:43.331Z,98377.31
2023-01-10T01:56:59.456Z,98382.44
2023-01-10T02:02:19.742Z,98385.91
2023-01-10T02:07:26.483Z,98386.88
2023-01-10T02:12:32.367Z,98388.91
2023-01-10T02:17:36.002Z,98387.38
2023-01-10T02:22:57.481Z,98395.59
2023-01-10T02:28:43.244Z,98402.59
2023-01-10T02:34:09.563Z,98401.56
2023-01-10T02:39:59.398Z,98406.91
2023-01-10T02:45:13.201Z,98406.09
2023-01-10T02:50:43.902Z,98414.75
2023-01-10T02:56:03.245Z,98414.75
2023-01-10T03:01:33.899Z,98409.41
2023-01-10T03:06:48.145Z,98418.25
2023-01-10T03:11:58.194Z,98406.50
2023-01-10T03:17:09.626Z,98418.88
2023-01-10T03:22:15.153Z,98426.31
2023-01-10T03:27:39.501Z,98422.66
2023-01-10T03:32:43.475Z,98432.75
2023-01-10T03:38:02.190Z,98443.06
2023-01-10T03:43:19.715Z,98447.22
2023-01-10T03:48:26.924Z,98440.84
2023-01-10T03:53:32.312Z,98454.59
2023-01-10T03:58:35.913Z,98454.53
2023-01-10T04:03:39.447Z,98457.63
2023-01-10T04:08:42.807Z,98470.16
2023-01-10T04:13:45.901Z,98468.06
2023-01-10T04:18:49.093Z,98472.13
2023-01-10T04:23:52.140Z,98475.00
2023-01-10T04:28:55.492Z,98477.06
2023-01-10T04:33:59.070Z,98478.25
2023-01-10T04:39:03.140Z,98479.47
2023-01-10T04:44:06.958Z,98485.22
2023-01-10T04:49:11.915Z,98499.81
2023-01-10T04:54:15.381Z,98494.28
2023-01-10T04:59:18.520Z,98503.56
2023-01-10T05:04:21.805Z,98492.94
2023-01-10T05:09:25.234Z,98499.34
2023-01-10T05:14:28.424Z,98503.09
2023-01-10T05:19:31.395Z,98510.13
2023-01-10T05:24:35.531Z,98520.66
2023-01-10T05:29:39.376Z,98526.25
2023-01-10T05:34:43.808Z,98529.63
2023-01-10T05:39:47.225Z,98529.47
2023-01-10T05:44:50.713Z,98537.53
2023-01-10T05:49:55.183Z,98542.28
2023-01-10T05:54:58.754Z,98538.84
2023-01-10T06:00:04.228Z,98553.09
2023-01-10T06:05:14.697Z,98545.38
2023-01-10T06:10:17.886Z,98555.13
2023-01-10T06:15:20.850Z,98556.53
2023-01-10T06:20:25.119Z,98569.78
2023-01-10T06:25:28.577Z,98573.09
2023-01-10T06:30:32.344Z,98580.69
2023-01-10T06:35:36.609Z,98584.19
2023-01-10T06:40:39.995Z,98584.00
2023-01-10T06:45:43.640Z,98593.91
2023-01-10T06:50:47.096Z,98588.97
2023-01-10T06:55:51.076Z,98590.44
2023-01-10T07:00:54.848Z,98600.72
2023-01-10T07:06:02.381Z,98596.63
2023-01-10T07:11:06.627Z,98592.91
2023-01-10T07:16:12.735Z,98601.56
2023-01-10T07:21:16.686Z,98601.19
2023-01-10T07:26:20.100Z,98594.56
2023-01-10T07:31:24.921Z,98597.03
2023-01-10T07:36:29.002Z,98598.50
2023-01-10T07:41:33.147Z,98596.22
2023-01-10T07:46:36.507Z,98595.59
2023-01-10T07:51:40.043Z,98587.56
2023-01-10T07:56:43.480Z,98584.84
2023-01-10T08:01:46.801Z,98584.81
2023-01-10T08:06:51.098Z,98573.66
2023-01-10T08:11:54.481Z,98568.69
2023-01-10T08:16:57.951Z,98561.47
2023-01-10T08:22:01.649Z,98567.63
2023-01-10T08:27:05.168Z,98552.91
2023-01-10T08:32:09.882Z,98540.25
2023-01-10T08:37:14.518Z,98545.59
2023-01-10T08:42:18.171Z,98547.56
2023-01-10T08:47:21.729Z,98545.63
2023-01-10T08:52:25.139Z,98530.66
2023-01-10T08:57:29.252Z,98524.75
2023-01-10T09:02:32.886Z,98510.22
2023-01-10T09:07:40.491Z,98508.69
2023-01-10T09:12:43.974Z,98509.66
2023-01-10T09:17:47.434Z,98502.13
2023-01-10T09:22:50.922Z,98500.94
2023-01-10T09:28:00.247Z,98496.13
2023-01-10T09:33:05.290Z,98487.50
2023-01-10T09:38:14.928Z,98486.72
2023-01-10T09:43:36.995Z,98478.25
2023-01-10T09:49:06.147Z,98466.66
2023-01-10T09:54:23.764Z,98472.44
2023-01-10T09:59:36.070Z,98463.34
2023-01-10T10:04:40.797Z,98458.72
2023-01-10T10:09:44.481Z,98457.03
2023-01-10T10:15:04.400Z,98444.47
2023-01-10T10:20:19.871Z,98442.22
2023-01-10T10:25:41.951Z,98438.09
2023-01-10T10:31:16.427Z,98434.09
2023-01-10T10:36:27.401Z,98440.34
2023-01-10T10:41:43.292Z,98432.03
2023-01-10T10:46:46.658Z,98437.75
2023-01-10T10:51:54.142Z,98422.84
2023-01-10T10:56:57.553Z,98425.66
2023-01-10T11:02:01.344Z,98417.13
2023-01-10T11:07:04.760Z,98419.00
2023-01-10T11:12:13.960Z,98415.13
2023-01-10T11:17:25.609Z,98415.72
2023-01-10T11:22:31.485Z,98415.69
2023-01-10T11:27:54.616Z,98422.34
2023-01-10T11:33:03.838Z,98420.72
2023-01-10T11:38:22.890Z,98420.47
2023-01-10T11:43:29.567Z,98416.59
2023-01-10T11:49:08.470Z,98421.00
2023-01-10T11:54:18.041Z,98416.38
2023-01-10T11:59:21.591Z,98421.03
2023-01-10T12:04:27.669Z,98419.88
2023-01-10T12:09:43.574Z,98423.25
2023-01-10T12:14:47.943Z,98410.00
2023-01-10T12:19:53.533Z,98426.38
2023-01-10T12:25:00.088Z,98433.63
2023-01-10T12:30:16.555Z,98439.25
2023-01-10T12:35:24.606Z,98441.31
2023-01-10T12:41:01.221Z,98446.31
2023-01-10T12:46:56.542Z,98445.34
2023-01-10T12:51:58.761Z,98450.94
2023-01-10T12:57:15.106Z,98451.19
2023-01-10T13:02:22.189Z,98456.34
2023-01-10T13:07:33.763Z,98440.84
2023-01-10T13:12:41.357Z,98444.00
2023-01-10T13:18:39.912Z,98451.25
2023-01-10T13:23:50.330Z,98446.69
2023-01-10T13:29:00.702Z,98452.06
2023-01-10T13:34:08.597Z,98455.91
2023-01-10T13:39:38.621Z,98449.97
2023-01-10T13:45:00.942Z,98457.28
2023-01-10T13:50:24.408Z,98458.75
2023-01-10T13:55:32.955Z,98453.84
2023-01-10T14:00:36.678Z,98447.88
2023-01-10T14:05:48.723Z,98448.94
2023-01-10T14:11:10.257Z,98441.19
2023-01-10T14:16:33.467Z,98439.81
2023-01-10T14:21:45.606Z,98441.72
2023-01-10T14:26:50.151Z,98443.28
2023-01-10T14:31:54.457Z,98446.44
2023-01-10T14:37:03.514Z,98444.88
2023-01-10T14:42:13.394Z,98443.28
2023-01-10T14:47:35.863Z,98444.38
2023-01-10T14:52:42.706Z,98455.44
2023-01-10T14:58:00.672Z,98454.69
2023-01-10T15:03:04.902Z,98454.75
2023-01-10T15:08:26.517Z,98449.44
2023-01-10T15:13:31.819Z,98453.00
2023-01-10T15:18:41.314Z,98463.56
2023-01-10T15:23:50.088Z,98471.41
2023-01-10T15:29:14.789Z,98464.78
2023-01-10T15:34:21.659Z,98463.78
2023-01-10T15:39:30.444Z,98481.34
2023-01-10T15:44:44.674Z,98483.38
2023-01-10T15:49:53.592Z,98485.47
2023-01-10T15:54:57.129Z,98493.50
2023-01-10T16:00:00.783Z,98501.53
2023-01-10T16:05:10.005Z,98503.19
2023-01-10T16:10:22.423Z,98500.28
2023-01-10T16:15:29.369Z,98510.59
2023-01-10T16:20:36.988Z,98505.03
2023-01-10T16:25:43.825Z,98512.03
2023-01-10T16:30:48.395Z,98516.56
2023-01-10T16:35:56.364Z,98520.06
2023-01-10T16:41:01.986Z,98536.53
2023-01-10T16:46:05.681Z,98525.41
2023-01-10T16:51:19.043Z,98542.31
2023-01-10T16:56:28.346Z,98547.44
2023-01-10T17:01:41.248Z,98542.69
2023-01-10T17:06:44.948Z,98545.38
2023-01-10T17:11:56.315Z,98553.63
2023-01-10T17:17:05.136Z,98564.75
2023-01-10T17:22:09.648Z,98562.44
2023-01-10T17:27:13.255Z,98562.66
2023-01-10T17:32:17.588Z,98566.59
2023-01-10T17:37:21.054Z,98573.97
2023-01-10T17:42:24.775Z,98570.25
2023-01-10T17:47:31.057Z,98565.13
2023-01-10T17:52:34.388Z,98562.22
2023-01-10T17:57:39.114Z,98567.78
2023-01-10T18:02:42.654Z,98577.06
2023-01-10T18:07:46.081Z,98578.72
2023-01-10T18:12:50.291Z,98559.13
2023-01-10T18:17:54.154Z,98565.13
2023-01-10T18:22:57.688Z,98561.41
2023-01-10T18:28:01.638Z,98561.22
2023-01-10T18:33:06.539Z,98559.16
2023-01-10T18:38:11.249Z,98556.47
2023-01-10T18:43:14.737Z,98560.41
2023-01-10T18:48:17.984Z,98556.72
2023-01-10T18:53:22.427Z,98551.75
2023-01-10T18:58:33.980Z,98546.00
2023-01-10T19:03:38.040Z,98538.59
2023-01-10T19:08:43.101Z,98538.38
2023-01-10T19:13:54.981Z,98537.34
2023-01-10T19:19:04.757Z,98549.31
2023-01-10T19:24:25.440Z,98526.03
2023-01-10T19:29:39.300Z,98548.28
2023-01-10T19:34:44.778Z,98549.09
2023-01-10T19:39:49.532Z,98535.94
2023-01-10T19:44:52.967Z,98536.75
2023-01-10T19:49:56.305Z,98545.59
2023-01-10T19:55:00.364Z,98540.47
2023-01-10T20:00:05.237Z,98543.97
2023-01-10T20:05:14.759Z,98532.22
2023-01-10T20:10:19.343Z,98530.34
2023-01-10T20:15:23.048Z,98534.50
2023-01-10T20:20:26.507Z,98531.81
2023-01-10T20:25:30.532Z,98535.94
2023-01-10T20:30:34.151Z,98540.25
2023-01-10T20:35:38.697Z,98542.75
2023-01-10T20:40:42.099Z,98536.16
2023-01-10T20:45:45.123Z,98525.44
2023-01-10T20:50:50.072Z,98516.97
2023-01-10T20:55:59.906Z,98510.63
2023-01-10T21:01:04.590Z,98522.34
2023-01-10T21:06:08.362Z,98521.72
2023-01-10T21:11:14.245Z,98514.50
2023-01-10T21:16:19.375Z,98504.00
2023-01-10T21:21:23.046Z,98509.56
2023-01-10T21:26:27.104Z,98511.44
2023-01-10T21:31:31.131Z,98494.31
2023-01-10T21:36:34.624Z,98491.00
2023-01-10T21:41:38.448Z,98501.31
2023-01-10T21:46:42.011Z,98498.22
2023-01-10T21:51:45.505Z,98507.28
2023-01-10T21:56:48.488Z,98505.03
2023-01-10T22:01:51.944Z,98501.53
2023-01-10T22:06:57.218Z,98507.88
2023-01-10T22:12:00.605Z,98507.06
2023-01-10T22:17:04.266Z,98499.25
2023-01-10T22:22:08.938Z,98488.31
2023-01-10T22:27:12.735Z,98491.81
2023-01-10T22:32:16.219Z,98490.81
2023-01-10T22:37:19.336Z,98477.41
2023-01-10T22:42:22.415Z,98478.41
2023-01-10T22:47:25.548Z,98469.56
2023-01-10T22:52:28.558Z,98471.63
2023-01-10T22:57:33.198Z,98474.53
2023-01-10T23:02:37.566Z,98476.16
2023-01-10T23:07:41.244Z,98475.13
2023-01-10T23:12:44.865Z,98475.34
2023-01-10T23:17:48.693Z,98477.81
2023-01-10T23:22:54.285Z,98472.66
2023-01-10T23:27:57.655Z,98468.56
2023-01-10T23:33:00.823Z,98472.88
2023-01-10T23:38:03.961Z,98478.22
2023-01-10T23:43:07.369Z,98473.69
2023-01-10T23:48:11.807Z,98474.53
2023-01-10T23:53:15.912Z,98478.84
2023-01-10T23:58:21.887Z,98476.16
